Weather observations for the past three days for
Michael Army Airfield - Dugway Proving Ground
| Date | Time (mdt) | Wind (kph) | Vis. (km) | Weather | Sky Cond. | Temperature (ºC) | Relative Humidity | Wind Chill (°C) | Heat Index (°C) | Pressure | Precipitation (cm) | ||||||
|---|---|---|---|---|---|---|---|---|---|---|---|---|---|---|---|---|---|
| Air | Dwpt | 6 hour | altimeter (cm) | sea level (mb) | 1 hr | 3 hr | 6 hr | ||||||||||
| Max. | Min. | ||||||||||||||||
| 05 | 16:55 | NW 11 | 56.33 | Mostly Cloudy | BKN060 BKN080 BKN110 | 19.1 | 2.5 | 33% | 75.69 | 1005.4 | |||||||
| 05 | 15:55 | W 11 | 48.28 | Mostly Cloudy | BKN070 BKN090 BKN120 | 19.2 | 1.1 | 30% | 75.69 | 1005.4 | |||||||
| 05 | 14:55 | W 11 | 48.28 | Mostly Cloudy | BKN070 BKN090 BKN120 | 18.6 | 0 | 29% | 75.72 | 1005.6 | |||||||
| 05 | 13:55 | NW 9 | 48.28 | Mostly Cloudy | BKN070 BKN090 BKN120 | 18.7 | -1 | 27% | 75.77 | 1006.1 | |||||||
| 05 | 12:55 | NW 6 | 56.33 | Mostly Cloudy | BKN080 BKN110 | 17.4 | -3.1 | 25% | 75.77 | 1006.1 | |||||||
| 05 | 11:55 | S 13 | 56.33 | Mostly Cloudy | BKN100 BKN120 | 16.8 | -3.4 | 17.9 | 9.7 | 25% | 75.77 | 1006.3 | |||||
| 05 | 10:55 | SE 4 | 56.33 | Mostly Cloudy | BKN080 BKN110 | 14.8 | -1.9 | 32% | 75.79 | 1006.6 | |||||||
| 05 | 09:55 | E 4 | 64.37 | Mostly Cloudy | BKN070 BKN110 | 13 | -1.1 | 38% | 75.77 | 1006.7 | |||||||
| 05 | 08:55 | NE 2 | 64.37 | Mostly Cloudy | BKN090 BKN120 | 11.8 | -1.1 | 41% | 75.77 | 1006.7 | |||||||
| 05 | 07:55 | E 9 | 48.28 | Mostly Cloudy | SCT090 BKN140 | 10.9 | -1.4 | 43% | 75.74 | 1006.1 | |||||||
| 05 | 06:55 | SE 2 | 64.37 | Mostly Cloudy | SCT090 BKN120 BKN200 | 9.9 | 2.4 | 60% | 75.67 | 1005.5 | |||||||
| 05 | 05:50 | SE 7 | 19.31 | Mostly Cloudy | SCT120 BKN140 BKN200 | 11.3 | 0.8 | 17.5 | 10.7 | 49% | 75.67 | 1004.8 | |||||
| 05 | 04:55 | E 11 | 19.31 | Mostly Cloudy | SCT130 BKN150 | 11.3 | 4.9 | 65% | 75.67 | 1005.0 | |||||||
| 04 | 16:55 | E 17 G 28 | 80.47 | Mostly Cloudy | BKN120 | 20.4 | 3.2 | 32% | 75.54 | 1003.1 | |||||||
| 04 | 15:55 | NE 19 G 28 | 80.47 | Light Rain | BKN120 | 19.6 | 4.2 | 36% | 75.67 | 1003.4 | |||||||
| 04 | 14:55 | W 13 | 80.47 | Mostly Cloudy | BKN120 | 21.8 | -0.2 | 23% | 75.67 | 1003.3 | |||||||
| 04 | 13:55 | SE 11 | 80.47 | Mostly Cloudy | BKN120 | 22.5 | -1.8 | 20% | 75.67 | 1003.2 | |||||||
| 04 | 12:55 | S 6 | 80.47 | Mostly Cloudy | BKN120 BKN170 | 23 | -2 | 19% | 75.67 | 1003.9 | |||||||
| 04 | 11:55 | E 11 | 80.47 | Partly Cloudy | FEW120 SCT170 | 22.2 | -1.4 | 23.3 | 11 | 21% | 75.72 | 1005.2 | |||||
| 04 | 10:55 | S 22 G 31 | 80.47 | Partly Cloudy | FEW120 SCT170 | 21.4 | -0.6 | 23% | 75.74 | 1005.7 | |||||||
| 04 | 07:55 | NE 9 | 16.09 | Mostly Cloudy | SCT120 BKN170 | 14 | 3.2 | 48% | 75.77 | 1001.6 | |||||||
| Date | Time (mdt) | Wind (kph) | Vis. (km) | Weather | Sky Cond. | Air | Dwpt | Max. | Min. | Relative Humidity | Wind Chill (°C) | Heat Index (°C) | altimeter (cm) | sea level (mb) | 1 hr | 3 hr | 6 hr |
| 6 hour | |||||||||||||||||
| Temperature (ºC) | Pressure | Precipitation (cm) | |||||||||||||||